Time;durP1;ratioP1;P1;durP2;ratioP2;P2;SDS_P1;SDS_P2;PMS_P1;PMS_P2;Temp;Humidity;BMP_temperature;BMP_pressure;BME280_temperature;BME280_humidity;BME280_pressure;Samples;Min_cycle;Max_cycle;Signal;HPM_P1;HPM_P2
2023/08/24 00:00:23;;;;;;;;;;;20.60;99.90;;;;;;7333642;19;109874;-64
2023/08/24 00:02:53;;;;;;;;;;;20.60;99.90;;;;;;7333254;19;110254;-64
2023/08/24 00:05:21;;;;;;;;;;;20.60;99.90;;;;;;7331170;19;110182;-64
2023/08/24 00:07:48;;;;;;;;;;;20.60;99.90;;;;;;7334951;19;109443;-64
2023/08/24 00:10:15;;;;;;;;;;;20.50;99.90;;;;;;7335714;19;109105;-65
2023/08/24 00:12:43;;;;;;;;;;;20.60;99.90;;;;;;7332475;19;109813;-64
2023/08/24 00:15:11;;;;;;;;;;;20.60;99.90;;;;;;7335647;19;109982;-64
2023/08/24 00:17:41;;;;;;;;;;;20.50;99.90;;;;;;7341137;19;109276;-64
2023/08/24 00:20:10;;;;;;;;;;;20.60;99.90;;;;;;7336282;19;108819;-64
2023/08/24 00:22:39;;;;;;;;;;;20.60;99.90;;;;;;7333044;19;112066;-64
2023/08/24 00:25:07;;;;;;;;;;;20.60;99.90;;;;;;7333376;19;109509;-64
2023/08/24 00:27:35;;;;;;;;;;;20.70;99.90;;;;;;7331957;19;112606;-64
2023/08/24 00:30:04;;;;;;;;;;;20.80;99.90;;;;;;7334123;19;108958;-64
2023/08/24 00:32:34;;;;;;;;;;;20.90;99.90;;;;;;7332511;19;110056;-64
2023/08/24 00:35:01;;;;;;;;;;;20.90;99.90;;;;;;7336417;19;109173;-64
2023/08/24 00:37:28;;;;;;;;;;;20.80;99.90;;;;;;7329790;19;110420;-64
2023/08/24 00:39:56;;;;;;;;;;;20.80;99.90;;;;;;7340776;19;108861;-64
2023/08/24 00:42:23;;;;;;;;;;;20.80;99.90;;;;;;7328783;19;110104;-64
2023/08/24 00:44:50;;;;;;;;;;;20.80;99.90;;;;;;7333609;19;109678;-64
2023/08/24 00:47:17;;;;;;;;;;;20.70;99.90;;;;;;7333224;19;109154;-64
2023/08/24 00:49:44;;;;;;;;;;;20.70;99.90;;;;;;7333610;19;110419;-64
2023/08/24 00:52:11;;;;;;;;;;;20.60;99.90;;;;;;7333003;19;109427;-64
2023/08/24 00:54:39;;;;;;;;;;;20.70;99.90;;;;;;7334212;19;108766;-64
2023/08/24 00:57:06;;;;;;;;;;;20.70;99.90;;;;;;7334198;19;108588;-64
2023/08/24 00:59:34;;;;;;;;;;;20.70;99.90;;;;;;7332398;19;109794;-64
2023/08/24 01:02:01;;;;;;;;;;;20.70;99.90;;;;;;7337826;19;110632;-64
2023/08/24 01:04:29;;;;;;;;;;;20.70;99.90;;;;;;7332262;19;110064;-64
2023/08/24 01:06:59;;;;;;;;;;;20.70;99.90;;;;;;7334150;19;112139;-64
2023/08/24 01:09:27;;;;;;;;;;;20.60;99.90;;;;;;7331975;19;108660;-64
2023/08/24 01:12:12;;;;;;;;;;;20.60;99.90;;;;;;7333123;19;109616;-64
2023/08/24 01:14:42;;;;;;;;;;;20.60;99.90;;;;;;7333866;19;108784;-64
2023/08/24 01:17:12;;;;;;;;;;;20.70;99.90;;;;;;7328946;19;111807;-64
2023/08/24 01:19:41;;;;;;;;;;;20.70;99.90;;;;;;7335435;19;111227;-64
2023/08/24 01:22:32;;;;;;;;;;;20.80;99.90;;;;;;7332536;19;109004;-64
2023/08/24 01:25:11;;;;;;;;;;;20.80;99.90;;;;;;7337184;19;109094;-64
2023/08/24 01:27:39;;;;;;;;;;;20.80;99.90;;;;;;7332643;19;108461;-64
2023/08/24 01:30:07;;;;;;;;;;;20.80;99.90;;;;;;7330529;19;108747;-64
2023/08/24 01:32:35;;;;;;;;;;;20.90;99.90;;;;;;7331727;19;111855;-64
2023/08/24 01:35:04;;;;;;;;;;;20.90;99.90;;;;;;7331794;19;109115;-64
2023/08/24 01:37:32;;;;;;;;;;;20.90;99.90;;;;;;7335153;19;109038;-64
2023/08/24 01:40:09;;;;;;;;;;;20.90;99.90;;;;;;7330579;19;109828;-64
2023/08/24 01:42:45;;;;;;;;;;;20.90;99.90;;;;;;7335118;19;109249;-64
2023/08/24 01:45:13;;;;;;;;;;;20.90;99.90;;;;;;7332231;19;109385;-64
2023/08/24 01:47:41;;;;;;;;;;;20.90;99.90;;;;;;7337837;19;109709;-64
2023/08/24 01:50:09;;;;;;;;;;;20.90;99.90;;;;;;7331487;19;110152;-64
2023/08/24 01:52:41;;;;;;;;;;;20.90;99.90;;;;;;7329113;19;131169;-63
2023/08/24 01:55:08;;;;;;;;;;;20.90;99.90;;;;;;7333438;19;108769;-64
2023/08/24 01:57:36;;;;;;;;;;;20.90;99.90;;;;;;7332316;19;108771;-64
2023/08/24 02:00:06;;;;;;;;;;;21.00;99.90;;;;;;7329646;19;110860;-65
2023/08/24 02:02:34;;;;;;;;;;;21.00;99.90;;;;;;7332604;19;109141;-64
2023/08/24 02:05:02;;;;;;;;;;;21.10;99.90;;;;;;7332043;19;109222;-64
2023/08/24 02:07:29;;;;;;;;;;;21.10;99.90;;;;;;7333510;19;109198;-64
2023/08/24 02:09:56;;;;;;;;;;;21.10;99.90;;;;;;7334059;19;108925;-64
2023/08/24 02:12:24;;;;;;;;;;;21.00;99.90;;;;;;7330084;19;110457;-64
2023/08/24 02:14:51;;;;;;;;;;;21.00;99.90;;;;;;7332509;19;108858;-64
2023/08/24 02:17:18;;;;;;;;;;;20.90;99.90;;;;;;7336659;19;108708;-64
2023/08/24 02:19:45;;;;;;;;;;;20.80;99.90;;;;;;7329470;19;110813;-65
2023/08/24 02:22:12;;;;;;;;;;;20.80;99.90;;;;;;7334653;19;108870;-65
2023/08/24 02:24:39;;;;;;;;;;;20.90;99.90;;;;;;7329743;19;111804;-64
2023/08/24 02:27:07;;;;;;;;;;;21.00;99.90;;;;;;7335136;19;110270;-64
2023/08/24 02:29:34;;;;;;;;;;;21.00;99.90;;;;;;7336726;19;110300;-64
2023/08/24 02:32:01;;;;;;;;;;;21.00;99.90;;;;;;7331996;19;110351;-64
2023/08/24 02:34:28;;;;;;;;;;;21.10;99.90;;;;;;7332898;19;108726;-64
2023/08/24 02:36:56;;;;;;;;;;;21.10;99.90;;;;;;7332055;19;108254;-68
2023/08/24 02:39:23;;;;;;;;;;;21.10;99.90;;;;;;7328596;19;109913;-65
2023/08/24 02:41:50;;;;;;;;;;;21.10;99.90;;;;;;7335925;19;109049;-65
2023/08/24 02:44:17;;;;;;;;;;;21.00;99.90;;;;;;7336850;19;109131;-64
2023/08/24 02:46:44;;;;;;;;;;;21.00;99.90;;;;;;7338086;19;109535;-65
2023/08/24 02:49:11;;;;;;;;;;;20.90;99.90;;;;;;7337754;19;109801;-64
2023/08/24 02:51:39;;;;;;;;;;;20.90;99.90;;;;;;7345402;19;109195;-64
2023/08/24 02:54:06;;;;;;;;;;;21.00;99.90;;;;;;7340862;19;110620;-64
2023/08/24 02:56:33;;;;;;;;;;;21.00;99.90;;;;;;7334952;19;108770;-64
2023/08/24 02:59:00;;;;;;;;;;;21.00;99.90;;;;;;7340816;19;110031;-64
2023/08/24 03:01:27;;;;;;;;;;;21.00;99.90;;;;;;7333308;19;108464;-64
2023/08/24 03:03:54;;;;;;;;;;;21.10;99.90;;;;;;7338990;19;112784;-64
2023/08/24 03:06:24;;;;;;;;;;;21.10;99.90;;;;;;7335616;19;110206;-64
2023/08/24 03:08:51;;;;;;;;;;;21.10;99.90;;;;;;7338756;19;109047;-64
2023/08/24 03:11:18;;;;;;;;;;;21.10;99.90;;;;;;7336369;19;109716;-64
2023/08/24 03:13:45;;;;;;;;;;;21.20;99.90;;;;;;7344765;19;109108;-64
2023/08/24 03:16:12;;;;;;;;;;;21.20;99.90;;;;;;7337086;19;109387;-64
2023/08/24 03:18:39;;;;;;;;;;;21.20;99.90;;;;;;7338969;19;110307;-64
2023/08/24 03:21:07;;;;;;;;;;;21.10;99.90;;;;;;7339367;19;108817;-64
2023/08/24 03:23:34;;;;;;;;;;;21.20;99.90;;;;;;7338615;19;109389;-64
2023/08/24 03:26:04;;;;;;;;;;;21.10;99.90;;;;;;7337522;19;111158;-64
2023/08/24 03:28:31;;;;;;;;;;;21.10;99.90;;;;;;7337153;19;108536;-64
2023/08/24 03:30:59;;;;;;;;;;;21.10;99.90;;;;;;7338536;19;110578;-64
2023/08/24 03:33:34;;;;;;;;;;;21.10;99.90;;;;;;7338780;19;109314;-65
2023/08/24 03:36:03;;;;;;;;;;;21.00;99.90;;;;;;7343933;19;109588;-64
2023/08/24 03:38:30;;;;;;;;;;;21.00;99.90;;;;;;7334454;19;109936;-64
2023/08/24 03:41:00;;;;;;;;;;;20.90;99.90;;;;;;7338181;19;109989;-65
2023/08/24 03:43:28;;;;;;;;;;;20.90;99.90;;;;;;7335740;19;109465;-64
2023/08/24 03:45:55;;;;;;;;;;;20.90;99.90;;;;;;7338481;19;109396;-64
2023/08/24 03:48:22;;;;;;;;;;;20.90;99.90;;;;;;7335776;19;108908;-64
2023/08/24 03:50:49;;;;;;;;;;;20.90;99.90;;;;;;7338356;19;110020;-64
2023/08/24 03:53:16;;;;;;;;;;;20.90;99.90;;;;;;7334443;19;109810;-64
2023/08/24 03:55:47;;;;;;;;;;;20.90;99.90;;;;;;7338342;19;108794;-64
2023/08/24 03:58:14;;;;;;;;;;;20.90;99.90;;;;;;7338588;19;109413;-64
2023/08/24 04:00:41;;;;;;;;;;;20.80;99.90;;;;;;7337404;19;109014;-64
2023/08/24 04:03:08;;;;;;;;;;;20.80;99.90;;;;;;7333961;19;110425;-64
2023/08/24 04:05:35;;;;;;;;;;;20.80;99.90;;;;;;7335094;19;109119;-65
2023/08/24 04:08:04;;;;;;;;;;;20.80;99.90;;;;;;7333913;19;109623;-64
2023/08/24 04:10:31;;;;;;;;;;;20.80;99.90;;;;;;7337028;19;109078;-64
2023/08/24 04:12:58;;;;;;;;;;;20.70;99.90;;;;;;7334858;19;110743;-64
2023/08/24 04:15:25;;;;;;;;;;;20.70;99.90;;;;;;7332382;19;109120;-64
2023/08/24 04:17:52;;;;;;;;;;;20.60;99.90;;;;;;7334651;19;110270;-64
2023/08/24 04:20:21;;;;;;;;;;;20.60;99.90;;;;;;7341070;19;109831;-64
2023/08/24 04:22:49;;;;;;;;;;;20.60;99.90;;;;;;7335956;19;109058;-64
2023/08/24 04:25:16;;;;;;;;;;;20.50;99.90;;;;;;7332394;19;109116;-64
2023/08/24 04:27:43;;;;;;;;;;;20.50;99.90;;;;;;7336565;19;108751;-63
2023/08/24 04:30:12;;;;;;;;;;;20.40;99.90;;;;;;7334839;19;108983;-64
2023/08/24 04:32:39;;;;;;;;;;;20.40;99.90;;;;;;7333746;19;110360;-64
2023/08/24 04:35:11;;;;;;;;;;;20.40;99.90;;;;;;7334803;19;110126;-64
2023/08/24 04:37:38;;;;;;;;;;;20.30;99.90;;;;;;7334007;19;108845;-64
2023/08/24 04:40:07;;;;;;;;;;;20.40;99.90;;;;;;7337397;19;109156;-64
2023/08/24 04:42:34;;;;;;;;;;;20.40;99.90;;;;;;7333861;19;109719;-64
2023/08/24 04:45:01;;;;;;;;;;;20.40;99.90;;;;;;7333032;19;110118;-64
2023/08/24 04:47:28;;;;;;;;;;;20.50;99.90;;;;;;7335927;19;110077;-64
2023/08/24 04:49:56;;;;;;;;;;;20.40;99.90;;;;;;7333650;19;109405;-64
2023/08/24 04:52:23;;;;;;;;;;;20.40;99.90;;;;;;7335611;19;109870;-64
2023/08/24 04:54:50;;;;;;;;;;;20.40;99.90;;;;;;7333095;19;108728;-64
2023/08/24 04:57:18;;;;;;;;;;;20.30;99.90;;;;;;7333084;19;110019;-64
2023/08/24 04:59:45;;;;;;;;;;;20.30;99.90;;;;;;7333706;19;109632;-64
2023/08/24 05:02:12;;;;;;;;;;;20.20;99.90;;;;;;7340841;19;108508;-64
2023/08/24 05:04:39;;;;;;;;;;;20.10;99.90;;;;;;7332823;19;115322;-64
2023/08/24 05:07:06;;;;;;;;;;;20.10;99.90;;;;;;7330467;19;109236;-64
2023/08/24 05:09:34;;;;;;;;;;;20.10;99.90;;;;;;7333204;19;109960;-64
2023/08/24 05:12:01;;;;;;;;;;;20.10;99.90;;;;;;7333261;19;109073;-64
2023/08/24 05:14:28;;;;;;;;;;;20.10;99.90;;;;;;7334607;19;109056;-64
2023/08/24 05:16:55;;;;;;;;;;;20.00;99.90;;;;;;7334726;19;109129;-64
2023/08/24 05:19:22;;;;;;;;;;;20.00;99.90;;;;;;7332905;19;109440;-64
2023/08/24 05:21:49;;;;;;;;;;;19.90;99.90;;;;;;7331361;19;116763;-67
2023/08/24 05:24:17;;;;;;;;;;;19.90;99.90;;;;;;7334230;19;109498;-64
2023/08/24 05:26:44;;;;;;;;;;;19.90;99.90;;;;;;7333493;19;108920;-65
2023/08/24 05:29:11;;;;;;;;;;;20.00;99.90;;;;;;7335192;19;109574;-68
2023/08/24 05:31:38;;;;;;;;;;;20.00;99.90;;;;;;7333308;19;111567;-68
2023/08/24 05:34:05;;;;;;;;;;;20.00;99.90;;;;;;7334051;19;108783;-69
2023/08/24 05:36:33;;;;;;;;;;;20.00;99.90;;;;;;7335694;19;108749;-65
2023/08/24 05:39:00;;;;;;;;;;;20.10;99.90;;;;;;7328494;19;109228;-64
2023/08/24 05:41:32;;;;;;;;;;;20.00;99.90;;;;;;7332245;19;109350;-65
2023/08/24 05:44:00;;;;;;;;;;;20.10;99.90;;;;;;7334678;19;108972;-64
2023/08/24 05:46:27;;;;;;;;;;;20.20;99.90;;;;;;7336599;19;111925;-64
2023/08/24 05:48:55;;;;;;;;;;;20.20;99.90;;;;;;7335095;19;109018;-64
2023/08/24 05:51:22;;;;;;;;;;;20.30;99.90;;;;;;7333018;19;109039;-64
2023/08/24 05:53:49;;;;;;;;;;;20.30;99.90;;;;;;7334228;19;113911;-65
2023/08/24 05:56:16;;;;;;;;;;;20.30;99.90;;;;;;7330746;19;108913;-65
2023/08/24 05:58:43;;;;;;;;;;;20.30;99.90;;;;;;7336042;19;109142;-64
2023/08/24 06:01:10;;;;;;;;;;;20.30;99.90;;;;;;7334109;19;108273;-65
2023/08/24 06:03:38;;;;;;;;;;;20.40;99.90;;;;;;7332563;19;108672;-64
2023/08/24 06:06:05;;;;;;;;;;;20.40;99.90;;;;;;7331469;19;110565;-64
2023/08/24 06:08:32;;;;;;;;;;;20.40;99.90;;;;;;7337136;19;108394;-64
2023/08/24 06:10:59;;;;;;;;;;;20.50;99.90;;;;;;7333491;19;110197;-64
2023/08/24 06:13:26;;;;;;;;;;;20.50;99.90;;;;;;7333410;19;109407;-65
2023/08/24 06:15:57;;;;;;;;;;;20.50;99.90;;;;;;7332931;19;109933;-64
2023/08/24 06:18:24;;;;;;;;;;;20.60;99.90;;;;;;7331311;19;109880;-66
2023/08/24 06:20:51;;;;;;;;;;;20.60;99.90;;;;;;7341756;19;109144;-64
2023/08/24 06:23:18;;;;;;;;;;;20.70;99.90;;;;;;7341459;19;108445;-64
2023/08/24 06:25:46;;;;;;;;;;;20.70;99.90;;;;;;7339933;19;109725;-65
2023/08/24 06:28:13;;;;;;;;;;;20.80;99.90;;;;;;7338602;19;108903;-64
2023/08/24 06:30:43;;;;;;;;;;;20.90;99.90;;;;;;7345174;19;108860;-64
2023/08/24 06:33:10;;;;;;;;;;;21.10;99.90;;;;;;7339577;19;109171;-64
2023/08/24 06:35:38;;;;;;;;;;;21.20;99.90;;;;;;7338910;19;109095;-64
2023/08/24 06:38:05;;;;;;;;;;;21.20;99.90;;;;;;7338365;19;109992;-64
2023/08/24 06:40:32;;;;;;;;;;;21.20;99.90;;;;;;7338765;19;109150;-64
2023/08/24 06:42:59;;;;;;;;;;;21.30;99.90;;;;;;7341933;19;109650;-64
2023/08/24 06:45:27;;;;;;;;;;;21.40;99.90;;;;;;7338915;19;109081;-64
2023/08/24 06:47:54;;;;;;;;;;;21.50;99.90;;;;;;7340275;19;108609;-65
2023/08/24 06:50:21;;;;;;;;;;;21.70;99.90;;;;;;7343065;19;110493;-65
2023/08/24 06:52:49;;;;;;;;;;;21.70;99.90;;;;;;7339203;19;108476;-64
2023/08/24 06:55:16;;;;;;;;;;;21.90;99.90;;;;;;7337971;19;108298;-65
2023/08/24 06:57:48;;;;;;;;;;;22.00;99.90;;;;;;7339750;19;109047;-64
2023/08/24 07:00:15;;;;;;;;;;;22.10;99.90;;;;;;7336454;19;109605;-65
2023/08/24 07:02:42;;;;;;;;;;;22.20;99.90;;;;;;7339142;19;109469;-65
2023/08/24 07:05:12;;;;;;;;;;;22.30;99.90;;;;;;7338800;19;109235;-64
2023/08/24 07:07:40;;;;;;;;;;;22.40;99.90;;;;;;7342202;19;108864;-65
2023/08/24 07:10:07;;;;;;;;;;;22.40;99.90;;;;;;7338280;19;110100;-65
2023/08/24 07:12:34;;;;;;;;;;;22.50;99.90;;;;;;7341806;19;113238;-65
2023/08/24 07:15:02;;;;;;;;;;;22.50;99.90;;;;;;7343284;19;109518;-65
2023/08/24 07:17:29;;;;;;;;;;;22.70;99.90;;;;;;7338096;19;110565;-76
2023/08/24 07:19:56;;;;;;;;;;;22.80;99.90;;;;;;7337306;19;109186;-75
2023/08/24 07:22:26;;;;;;;;;;;22.90;99.90;;;;;;7338427;19;109461;-75
2023/08/24 07:24:53;;;;;;;;;;;23.10;99.90;;;;;;7338931;19;110059;-76
2023/08/24 07:27:20;;;;;;;;;;;23.20;99.90;;;;;;7338414;19;109378;-75
2023/08/24 07:29:48;;;;;;;;;;;23.30;99.90;;;;;;7336857;19;109684;-75
2023/08/24 07:32:15;;;;;;;;;;;23.30;99.90;;;;;;7337195;19;109199;-74
2023/08/24 07:34:42;;;;;;;;;;;23.40;99.90;;;;;;7345546;19;108276;-74
2023/08/24 07:37:09;;;;;;;;;;;23.50;99.90;;;;;;7337152;19;111555;-75
2023/08/24 07:39:37;;;;;;;;;;;23.50;99.90;;;;;;7337225;19;108836;-75
2023/08/24 07:42:04;;;;;;;;;;;23.60;99.90;;;;;;7338440;19;108927;-75
2023/08/24 07:44:31;;;;;;;;;;;23.60;99.90;;;;;;7338882;19;109102;-74
2023/08/24 07:46:58;;;;;;;;;;;23.60;99.90;;;;;;7336240;19;108602;-74
2023/08/24 07:49:25;;;;;;;;;;;23.70;99.90;;;;;;7338689;19;109039;-75
2023/08/24 07:51:52;;;;;;;;;;;23.70;99.90;;;;;;7337656;19;109531;-75
2023/08/24 07:54:20;;;;;;;;;;;23.80;99.90;;;;;;7339780;19;108781;-75
2023/08/24 07:56:47;;;;;;;;;;;23.80;99.90;;;;;;7343885;19;108181;-75
2023/08/24 07:59:14;;;;;;;;;;;24.00;99.90;;;;;;7338591;19;108477;-75
2023/08/24 08:01:44;;;;;;;;;;;24.00;99.90;;;;;;7334887;19;108789;-74
2023/08/24 08:04:11;;;;;;;;;;;24.10;99.90;;;;;;7337870;19;109240;-75
2023/08/24 08:06:38;;;;;;;;;;;24.20;99.90;;;;;;7334445;19;108958;-75
2023/08/24 08:09:05;;;;;;;;;;;24.20;99.90;;;;;;7338359;19;109261;-74
2023/08/24 08:11:32;;;;;;;;;;;24.30;99.90;;;;;;7335710;19;110343;-75
2023/08/24 08:13:59;;;;;;;;;;;24.30;99.90;;;;;;7337109;19;108559;-75
2023/08/24 08:16:26;;;;;;;;;;;24.40;99.90;;;;;;7336381;19;108952;-74
2023/08/24 08:18:54;;;;;;;;;;;24.40;99.90;;;;;;7343457;19;109329;-74
2023/08/24 08:21:23;;;;;;;;;;;24.50;99.90;;;;;;7337678;19;108605;-74
2023/08/24 08:23:50;;;;;;;;;;;24.60;99.90;;;;;;7334332;19;110244;-75
2023/08/24 08:26:17;;;;;;;;;;;24.70;99.90;;;;;;7335904;19;108462;-75
2023/08/24 08:28:44;;;;;;;;;;;24.70;99.90;;;;;;7339107;19;108930;-74
2023/08/24 08:31:11;;;;;;;;;;;24.80;99.90;;;;;;7335309;19;109591;-74
2023/08/24 08:33:38;;;;;;;;;;;24.80;99.90;;;;;;7333900;19;108736;-74
2023/08/24 08:36:05;;;;;;;;;;;24.90;99.90;;;;;;7337509;19;108852;-74
2023/08/24 08:38:33;;;;;;;;;;;24.90;99.90;;;;;;7333645;19;110518;-75
2023/08/24 08:41:04;;;;;;;;;;;25.00;99.90;;;;;;7343311;19;108504;-74
2023/08/24 08:43:31;;;;;;;;;;;25.00;99.90;;;;;;7334570;19;110626;-75
2023/08/24 08:45:59;;;;;;;;;;;25.00;99.90;;;;;;7336551;19;109302;-74
2023/08/24 08:48:28;;;;;;;;;;;25.00;99.90;;;;;;7334510;19;111109;-74
2023/08/24 08:50:57;;;;;;;;;;;25.10;99.90;;;;;;7336344;19;109650;-74
2023/08/24 08:53:24;;;;;;;;;;;25.10;99.90;;;;;;7334431;19;111219;-74
2023/08/24 08:55:53;;;;;;;;;;;25.10;99.90;;;;;;7336761;19;109587;-75
2023/08/24 08:58:20;;;;;;;;;;;25.10;99.90;;;;;;7333486;19;110046;-74
2023/08/24 09:00:48;;;;;;;;;;;25.10;99.90;;;;;;7341748;19;108587;-74
2023/08/24 09:03:19;;;;;;;;;;;25.10;99.90;;;;;;7334099;19;110055;-75
2023/08/24 09:05:47;;;;;;;;;;;25.20;99.90;;;;;;7335213;19;109078;-74
2023/08/24 09:08:18;;;;;;;;;;;25.20;99.90;;;;;;7332826;19;109658;-74
2023/08/24 09:10:45;;;;;;;;;;;25.30;99.90;;;;;;7334860;19;110434;-74
2023/08/24 09:13:12;;;;;;;;;;;25.40;99.90;;;;;;7334497;19;108608;-74
2023/08/24 09:15:40;;;;;;;;;;;25.60;99.90;;;;;;7334503;19;108702;-75
2023/08/24 09:18:07;;;;;;;;;;;25.60;99.90;;;;;;7334785;19;111359;-74
2023/08/24 09:20:35;;;;;;;;;;;25.70;99.90;;;;;;7334014;19;109107;-75
2023/08/24 09:23:03;;;;;;;;;;;25.80;99.90;;;;;;7341915;19;110106;-75
2023/08/24 09:25:30;;;;;;;;;;;26.00;99.90;;;;;;7334110;19;108872;-75
2023/08/24 09:28:01;;;;;;;;;;;26.10;99.90;;;;;;7333451;19;109642;-75
2023/08/24 09:30:29;;;;;;;;;;;26.10;99.90;;;;;;7335718;19;110511;-74
2023/08/24 09:33:00;;;;;;;;;;;26.20;99.90;;;;;;7335083;19;108459;-74
2023/08/24 09:35:28;;;;;;;;;;;26.20;99.90;;;;;;7332045;19;110430;-75
2023/08/24 09:37:55;;;;;;;;;;;26.20;99.90;;;;;;7333271;19;109247;-74
2023/08/24 09:40:26;;;;;;;;;;;26.10;99.90;;;;;;7335443;19;110086;-74
2023/08/24 09:42:53;;;;;;;;;;;26.20;99.90;;;;;;7331452;19;109000;-74
2023/08/24 09:45:20;;;;;;;;;;;26.20;99.90;;;;;;7339480;19;111051;-74
2023/08/24 09:47:52;;;;;;;;;;;26.30;99.90;;;;;;7335939;19;108444;-74
2023/08/24 09:50:19;;;;;;;;;;;26.30;99.90;;;;;;7332355;19;109312;-75
2023/08/24 09:52:48;;;;;;;;;;;26.40;99.90;;;;;;7331278;19;109294;-75
2023/08/24 09:55:18;;;;;;;;;;;26.40;99.90;;;;;;7333435;19;108800;-75
2023/08/24 09:57:45;;;;;;;;;;;26.30;99.90;;;;;;7335864;19;109697;-74
2023/08/24 10:00:16;;;;;;;;;;;26.30;99.90;;;;;;7333485;19;108422;-74
2023/08/24 10:02:51;;;;;;;;;;;26.30;99.90;;;;;;7335145;19;111255;-74
2023/08/24 10:05:20;;;;;;;;;;;26.10;99.90;;;;;;7334922;19;110484;-74
2023/08/24 10:07:52;;;;;;;;;;;26.00;99.90;;;;;;7337900;19;110165;-75
2023/08/24 10:10:19;;;;;;;;;;;25.90;99.90;;;;;;7336345;19;110557;-75
2023/08/24 10:12:48;;;;;;;;;;;25.90;99.90;;;;;;7333239;19;108805;-75
2023/08/24 10:15:17;;;;;;;;;;;25.80;99.90;;;;;;7335565;19;109761;-75
2023/08/24 10:17:44;;;;;;;;;;;25.70;99.90;;;;;;7334140;19;108859;-75
2023/08/24 10:20:12;;;;;;;;;;;25.60;99.90;;;;;;7334457;19;109290;-75
2023/08/24 10:22:40;;;;;;;;;;;25.60;99.90;;;;;;7334750;19;109766;-75
2023/08/24 10:25:09;;;;;;;;;;;25.50;99.90;;;;;;7333169;19;109471;-75
2023/08/24 10:27:36;;;;;;;;;;;25.40;99.90;;;;;;7333360;19;108777;-75
2023/08/24 10:30:04;;;;;;;;;;;25.30;99.90;;;;;;7339500;19;109092;-75
2023/08/24 10:32:31;;;;;;;;;;;25.20;99.90;;;;;;7333171;19;109042;-75
2023/08/24 10:34:58;;;;;;;;;;;25.10;99.90;;;;;;7333894;19;109596;-76
2023/08/24 10:37:26;;;;;;;;;;;25.10;99.90;;;;;;7331217;19;110743;-75
2023/08/24 10:39:54;;;;;;;;;;;25.10;99.90;;;;;;7332958;19;111068;-75
2023/08/24 10:42:21;;;;;;;;;;;25.00;99.90;;;;;;7331611;19;108493;-75
2023/08/24 10:44:51;;;;;;;;;;;25.00;99.90;;;;;;7331711;19;109138;-75
2023/08/24 10:47:19;;;;;;;;;;;24.90;99.90;;;;;;7333889;19;108449;-75
2023/08/24 10:49:55;;;;;;;;;;;24.80;99.90;;;;;;7339072;19;109504;-75
2023/08/24 10:52:23;;;;;;;;;;;24.80;99.90;;;;;;7332019;19;108397;-75
2023/08/24 10:54:51;;;;;;;;;;;24.70;99.90;;;;;;7330219;19;109196;-75
2023/08/24 10:57:27;;;;;;;;;;;24.60;99.90;;;;;;7331880;19;109272;-75
2023/08/24 11:00:08;;;;;;;;;;;24.50;99.90;;;;;;7331578;19;109871;-75
2023/08/24 11:02:42;;;;;;;;;;;24.40;99.90;;;;;;7330412;19;110115;-75
2023/08/24 11:05:28;;;;;;;;;;;24.30;99.90;;;;;;7336133;19;109967;-74
2023/08/24 11:08:03;;;;;;;;;;;24.30;99.90;;;;;;7339269;19;110661;-74
2023/08/24 11:10:31;;;;;;;;;;;24.30;99.90;;;;;;7343934;19;109801;-75
2023/08/24 11:13:04;;;;;;;;;;;24.20;99.90;;;;;;7341793;19;110198;-74
2023/08/24 11:15:40;;;;;;;;;;;24.30;99.90;;;;;;7339974;19;109153;-75
2023/08/24 11:18:20;;;;;;;;;;;24.30;99.90;;;;;;7338729;19;109574;-76
2023/08/24 11:20:48;;;;;;;;;;;24.30;99.90;;;;;;7340232;19;108755;-77
2023/08/24 11:23:16;;;;;;;;;;;24.50;99.90;;;;;;7340149;19;110540;-76
2023/08/24 11:25:44;;;;;;;;;;;24.50;99.90;;;;;;7338971;19;110259;-74
2023/08/24 11:28:16;;;;;;;;;;;24.60;99.90;;;;;;7341301;19;108311;-75
2023/08/24 11:30:44;;;;;;;;;;;24.80;99.90;;;;;;7339859;19;108728;-74
2023/08/24 11:33:11;;;;;;;;;;;24.90;99.90;;;;;;7339846;19;110184;-75
2023/08/24 11:35:39;;;;;;;;;;;25.10;99.90;;;;;;7344195;19;109009;-75
2023/08/24 11:38:06;;;;;;;;;;;25.10;99.90;;;;;;7340145;19;110857;-75
2023/08/24 11:40:33;;;;;;;;;;;25.20;99.90;;;;;;7334877;19;110110;-74
2023/08/24 11:43:00;;;;;;;;;;;25.30;99.90;;;;;;7335571;19;109065;-73
2023/08/24 11:45:32;;;;;;;;;;;25.40;99.90;;;;;;7334926;19;109482;-74
2023/08/24 11:48:04;;;;;;;;;;;25.50;99.90;;;;;;7338493;19;108302;-74
2023/08/24 11:50:33;;;;;;;;;;;25.60;99.90;;;;;;7337709;19;109113;-74
2023/08/24 11:53:01;;;;;;;;;;;25.70;99.90;;;;;;7336877;19;109520;-74
2023/08/24 11:55:28;;;;;;;;;;;25.80;99.90;;;;;;7338952;19;108439;-74
2023/08/24 11:57:55;;;;;;;;;;;25.80;99.90;;;;;;7342891;19;109269;-74
2023/08/24 12:00:23;;;;;;;;;;;25.90;99.90;;;;;;7335700;19;109132;-73
2023/08/24 12:02:50;;;;;;;;;;;26.00;99.90;;;;;;7338804;19;110544;-75
2023/08/24 12:05:23;;;;;;;;;;;26.20;99.90;;;;;;7334351;19;110027;-75
2023/08/24 12:07:53;;;;;;;;;;;26.20;99.90;;;;;;7336894;19;108717;-75
2023/08/24 12:10:21;;;;;;;;;;;26.20;99.90;;;;;;7339143;19;109814;-75
2023/08/24 12:12:48;;;;;;;;;;;26.20;99.90;;;;;;7336314;19;109929;-74
2023/08/24 12:15:20;;;;;;;;;;;26.30;99.90;;;;;;7339012;19;108482;-74
2023/08/24 12:17:47;;;;;;;;;;;26.30;99.90;;;;;;7337976;19;110378;-74
2023/08/24 12:20:19;;;;;;;;;;;26.30;99.90;;;;;;7343688;19;110252;-74
2023/08/24 12:22:51;;;;;;;;;;;26.40;99.90;;;;;;7337344;19;108816;-73
2023/08/24 12:25:21;;;;;;;;;;;26.50;99.90;;;;;;7337779;19;109102;-74
2023/08/24 12:27:50;;;;;;;;;;;26.60;99.90;;;;;;7340164;19;108332;-74
2023/08/24 12:30:17;;;;;;;;;;;26.60;99.90;;;;;;7340975;19;110012;-73
2023/08/24 12:35:19;;;;;;;;;;;26.70;99.90;;;;;;7333954;19;108787;-74
2023/08/24 12:37:46;;;;;;;;;;;26.60;99.90;;;;;;7337972;19;109372;-78
2023/08/24 12:40:13;;;;;;;;;;;26.60;99.90;;;;;;7334272;19;109660;-74
2023/08/24 12:42:40;;;;;;;;;;;26.50;99.90;;;;;;7342375;19;110446;-74
2023/08/24 12:45:08;;;;;;;;;;;26.40;99.90;;;;;;7335941;19;111079;-75
2023/08/24 12:47:37;;;;;;;;;;;26.30;99.90;;;;;;7336828;19;109740;-74
2023/08/24 12:50:05;;;;;;;;;;;26.20;99.90;;;;;;7337123;19;109129;-75
2023/08/24 12:52:33;;;;;;;;;;;26.10;99.90;;;;;;7338082;19;111476;-75
2023/08/24 12:55:01;;;;;;;;;;;26.10;99.90;;;;;;7334152;19;109502;-74
2023/08/24 12:57:28;;;;;;;;;;;26.10;99.90;;;;;;7337675;19;109631;-74
2023/08/24 12:59:55;;;;;;;;;;;26.10;99.90;;;;;;7333954;19;109115;-75
2023/08/24 13:02:22;;;;;;;;;;;25.90;99.90;;;;;;7342050;19;108585;-74
2023/08/24 13:05:04;;;;;;;;;;;25.90;99.90;;;;;;7334349;19;109191;-74
2023/08/24 13:07:31;;;;;;;;;;;25.80;99.90;;;;;;7336687;19;108806;-74
2023/08/24 13:09:58;;;;;;;;;;;25.70;99.90;;;;;;7334841;19;110330;-74
2023/08/24 13:12:26;;;;;;;;;;;25.70;99.90;;;;;;7336944;19;109837;-75
2023/08/24 13:14:53;;;;;;;;;;;25.60;99.90;;;;;;7337994;19;108675;-74
2023/08/24 13:17:20;;;;;;;;;;;25.50;99.90;;;;;;7335005;19;108904;-75
2023/08/24 13:19:48;;;;;;;;;;;25.50;99.90;;;;;;7335831;19;109217;-75
2023/08/24 13:22:16;;;;;;;;;;;25.40;99.90;;;;;;7337804;19;108715;-73
2023/08/24 13:24:44;;;;;;;;;;;25.40;99.90;;;;;;7343569;19;109890;-74
2023/08/24 13:27:11;;;;;;;;;;;25.40;99.90;;;;;;7334841;19;110649;-75
2023/08/24 13:29:40;;;;;;;;;;;25.30;99.90;;;;;;7335109;19;108365;-73
2023/08/24 13:32:07;;;;;;;;;;;25.30;99.90;;;;;;7336252;19;109101;-74
2023/08/24 13:34:36;;;;;;;;;;;25.20;99.90;;;;;;7336386;19;108754;-74
2023/08/24 13:37:04;;;;;;;;;;;25.20;99.90;;;;;;7337491;19;108944;-74
2023/08/24 13:39:34;;;;;;;;;;;25.20;99.90;;;;;;7334214;19;110905;-74
2023/08/24 13:42:01;;;;;;;;;;;25.20;99.90;;;;;;7336639;19;109316;-75
2023/08/24 13:44:29;;;;;;;;;;;25.20;99.90;;;;;;7336158;19;110139;-75
2023/08/24 13:46:56;;;;;;;;;;;25.10;99.90;;;;;;7338734;19;110005;-75
2023/08/24 13:49:23;;;;;;;;;;;25.10;99.90;;;;;;7334600;19;108703;-75
2023/08/24 13:52:06;;;;;;;;;;;25.00;99.90;;;;;;7334490;19;109329;-74
2023/08/24 13:54:33;;;;;;;;;;;25.00;99.90;;;;;;7335849;19;108495;-75
2023/08/24 13:57:01;;;;;;;;;;;25.00;99.90;;;;;;7334952;19;109139;-74
2023/08/24 13:59:28;;;;;;;;;;;25.00;99.90;;;;;;7333756;19;109896;-74
2023/08/24 14:01:55;;;;;;;;;;;25.00;99.90;;;;;;7332806;19;110030;-74
2023/08/24 14:04:23;;;;;;;;;;;24.90;99.90;;;;;;7333999;19;109011;-74
2023/08/24 14:06:50;;;;;;;;;;;24.80;99.90;;;;;;7334977;19;109173;-74
2023/08/24 14:09:18;;;;;;;;;;;24.80;99.90;;;;;;7339252;19;108895;-74
2023/08/24 14:11:46;;;;;;;;;;;24.70;99.90;;;;;;7333189;19;109303;-74